Latest Weather Observations for Cerberus

IDV60801

Issued at 9:52 am EDT Thursday 23 January 2020 (issued every 10 minutes, with the page automatically refreshed every 10 minutes)

About weather observations | Map of weather stations | Latest weather observations for VIC | Other Formats
Station Details ID: 086361 Name: CERBERUS Lat: -38.36 Lon: 145.18 Height: 12.69 m
Data from the previous 72 hours. | See also: Recent months at Cerberus
Date/Time
EDT
Temp
°C
App
Temp
°C
Dew
Point
°C
Rel
Hum
%
Delta-T
°C
Wind Press
QNH
hPa
Press
MSL
hPa
Rain since
9am
mm
Dir  Spd
km/h
Gust
km/h
Spd
kts
Gust
kts
23/09:30am 14.1 12.9 12.8 92 0.7 N 11 20 6 11 996.2 996.2 0.4
23/09:00am 13.9 13.4 12.6 92 0.7 N 7 11 4 6 996.0 996.0 39.0
23/08:30am 13.5 12.5 12.2 92 0.7 N 9 15 5 8 996.4 996.4 37.0
23/08:00am 13.1 12.3 11.8 92 0.7 N 7 13 4 7 996.1 996.1 36.6
23/07:30am 12.9 12.3 11.6 92 0.7 N 6 11 3 6 996.0 996.0 35.8
23/07:00am 12.7 11.4 11.4 92 0.7 N 9 13 5 7 995.6 995.6 34.8
23/06:30am 12.7 11.8 11.4 92 0.7 N 7 13 4 7 995.7 995.7 33.8
23/06:00am 12.8 11.9 11.5 92 0.7 NNE 7 11 4 6 996.0 996.0 32.6
23/05:30am 12.5 11.7 11.2 92 0.7 NNE 6 7 3 4 995.9 995.9 31.2
23/05:00am 12.5 11.7 11.1 91 0.7 NNE 6 7 3 4 996.8 996.8 29.0
23/04:30am 12.7 12.7 11.3 91 0.7 WSW 2 6 1 3 997.4 997.4 26.4
23/04:00am 12.7 12.4 11.3 91 0.7 WSW 4 7 2 4 997.5 997.5 23.8
23/03:30am 12.6 11.8 11.2 91 0.7 SW 6 9 3 5 996.7 996.7 20.6
23/03:00am 12.9 12.2 11.5 91 0.7 SSW 6 9 3 5 997.4 997.4 19.0
23/02:30am 13.6 13.9 12.2 91 0.8 NNW 2 7 1 4 998.2 998.2 17.6
23/02:00am 13.8 13.7 12.2 90 0.9 NW 4 7 2 4 998.1 998.1 16.2
23/01:30am 14.0 14.0 12.4 90 0.9 NE 4 6 2 3 998.6 998.6 13.4
23/01:00am 14.2 14.3 12.6 90 0.9 SW 4 6 2 3 999.1 999.1 11.4
23/12:30am 14.3 15.1 12.5 89 1.0 CALM 0 0 0 0 1000.0 1000.0 7.6
23/12:00am 14.4 14.5 12.6 89 1.0 NW 4 6 2 3 1000.5 1000.5 5.2
 
Date/Time
EDT
Temp
°C
App
Temp
°C
Dew
Point
°C
Rel
Hum
%
Delta-T
°C
Wind Press
QNH
hPa
Press
MSL
hPa
Rain since
9am
mm
Dir  Spd
km/h
Gust
km/h
Spd
kts
Gust
kts
22/11:30pm 14.4 14.0 12.4 88 1.1 W 6 11 3 6 1000.7 1000.7 3.0
22/11:00pm 14.8 13.2 12.8 88 1.1 WSW 13 20 7 11 1000.8 1000.8 1.6
22/10:30pm 14.8 11.1 12.7 87 1.2 SW 24 39 13 21 1000.6 1000.6 0.8
22/10:00pm 16.1 13.7 13.8 86 1.3 SW 19 30 10 16 999.9 999.9 0.2
22/09:30pm 16.6 14.2 13.9 84 1.5 SW 19 30 10 16 999.9 999.9 0.0
22/09:00pm 16.4 13.8 13.9 85 1.4 SSW 20 35 11 19 998.6 998.6 0.0
22/08:30pm 17.6 14.3 14.1 80 2.0 SSW 24 37 13 20 998.6 998.6 0.0
22/08:00pm 18.5 16.9 13.8 74 2.7 SSW 15 30 8 16 997.9 997.9 0.0
22/07:30pm 18.8 17.2 13.9 73 2.8 S 15 26 8 14 997.8 997.8 0.0
22/07:00pm 18.9 16.8 13.7 72 3.0 SSW 17 30 9 16 997.7 997.7 0.0
22/06:30pm 19.7 17.0 13.6 68 3.5 SW 20 33 11 18 996.7 996.7 0.0
22/06:14pm 24.1 20.6 8.9 38 8.2 NW 17 37 9 20 996.8 996.8 0.0
22/06:00pm 30.2 27.3 8.0 25 12.2 N 13 22 7 12 995.5 995.5 0.0
22/05:30pm 30.1 26.6 7.3 24 12.3 N 15 26 8 14 995.8 995.8 0.0
22/05:00pm 30.1 25.7 7.3 24 12.4 NNW 20 39 11 21 995.5 995.5 0.0
22/04:30pm 30.6 25.1 7.7 24 12.5 NNW 26 39 14 21 995.6 995.6 0.0
22/04:00pm 31.3 27.2 10.1 27 12.2 N 22 39 12 21 996.1 996.1 0.0
22/03:30pm 31.1 26.4 9.3 26 12.3 N 24 43 13 23 996.7 996.7 0.0
22/03:15pm 30.8 25.4 9.6 27 12.0 N 28 48 15 26 997.1 997.1 0.0
22/03:00pm 30.4 26.6 9.8 28 11.7 N 20 37 11 20 997.4 997.4 0.0
22/02:30pm 30.1 26.2 9.6 28 11.5 N 20 41 11 22 997.8 997.8 0.0
22/02:00pm 29.9 25.4 9.9 29 11.3 N 24 50 13 27 998.5 998.5 0.0
22/01:36pm 29.7 24.2 9.3 28 11.4 N 28 57 15 31 999.0 999.0 0.0
22/01:30pm 29.8 25.3 9.9 29 11.2 N 24 44 13 24 999.1 999.1 0.0
22/01:00pm 29.5 24.1 9.6 29 11.2 NNW 28 46 15 25 999.7 999.7 0.0
22/12:52pm 29.6 24.0 8.6 27 11.6 NNW 28 48 15 26 999.7 999.7 0.0
22/12:30pm 29.4 25.7 10.0 30 10.9 N 20 33 11 18 1000.0 1000.0 0.0
22/12:11pm 28.4 23.0 9.6 31 10.5 NNW 28 46 15 25 1000.3 1000.3 0.0
22/12:00pm - - - - - NNW 24 48 13 26 1000.5 1000.5 0.0
22/11:51am - - - - - N 28 54 15 29 1000.5 1000.5 0.0
22/11:30am - - - - - N 24 43 13 23 1000.9 1000.9 0.0
22/11:00am 27.7 22.5 10.4 34 9.8 N 28 44 15 24 1001.1 1001.1 0.0
22/10:30am 26.8 22.7 11.3 38 8.8 N 24 41 13 22 1001.6 1001.6 0.0
22/10:00am 25.2 21.8 11.4 42 7.8 N 20 48 11 26 1001.9 1001.9 0.0
22/09:30am 23.1 22.0 13.0 53 5.8 N 11 20 6 11 1002.1 1002.1 0.0
22/09:00am 20.9 20.4 13.8 64 4.1 NNE 9 20 5 11 1002.3 1002.3 0.2
22/08:30am 19.3 18.6 13.3 68 3.4 NNE 9 15 5 8 1002.5 1002.5 0.2
22/08:00am 18.6 17.8 14.1 75 2.6 NNE 11 19 6 10 1002.8 1002.8 0.2
22/07:30am 16.4 16.4 14.2 87 1.3 NNE 7 15 4 8 1003.0 1003.0 0.2
22/07:00am 13.8 13.1 12.0 89 1.0 N 7 15 4 8 1003.1 1003.1 0.2
22/06:30am 12.2 11.2 10.4 89 0.9 N 6 7 3 4 1003.6 1003.6 0.2
22/06:00am 12.6 11.8 11.0 90 0.8 N 6 9 3 5 1003.8 1003.8 0.2
22/05:30am 12.5 11.7 10.9 90 0.8 N 6 11 3 6 1003.9 1003.9 0.2
22/05:00am 12.8 12.0 11.2 90 0.8 N 6 7 3 4 1003.8 1003.8 0.2
22/04:30am 12.4 11.5 10.6 89 0.9 N 6 9 3 5 1004.1 1004.1 0.2
22/04:00am 12.9 12.1 11.1 89 0.9 NNE 6 9 3 5 1004.5 1004.5 0.2
22/03:30am 13.1 12.4 11.3 89 1.0 NNE 6 7 3 4 1004.8 1004.8 0.2
22/03:00am 10.2 9.4 8.3 88 0.9 ESE 2 4 1 2 1005.1 1005.1 0.2
22/02:30am 10.6 9.9 8.7 88 0.9 ESE 2 4 1 2 1005.5 1005.5 0.2
22/02:00am 10.4 10.1 8.5 88 0.9 CALM 0 6 0 3 1005.9 1005.9 0.2
22/01:30am 10.8 10.5 8.7 87 1.0 CALM 0 0 0 0 1006.1 1006.1 0.2
22/01:00am 10.5 10.1 8.3 86 1.1 CALM 0 0 0 0 1006.5 1006.5 0.2
22/12:30am 11.1 10.8 8.8 86 1.1 CALM 0 0 0 0 1006.8 1006.8 0.2
22/12:00am 11.5 11.3 9.1 85 1.2 CALM 0 0 0 0 1007.3 1007.3 0.2
 
Date/Time
EDT
Temp
°C
App
Temp
°C
Dew
Point
°C
Rel
Hum
%
Delta-T
°C
Wind Press
QNH
hPa
Press
MSL
hPa
Rain since
9am
mm
Dir  Spd
km/h
Gust
km/h
Spd
kts
Gust
kts
21/11:30pm 11.6 11.3 8.8 83 1.4 CALM 0 0 0 0 1007.6 1007.6 0.2
21/11:00pm 12.4 11.9 9.2 81 1.6 ESE 2 4 1 2 1008.1 1008.1 0.2
21/10:30pm 12.6 12.4 8.9 78 1.9 CALM 0 0 0 0 1008.2 1008.2 0.2
21/10:00pm 13.6 12.7 9.1 74 2.3 ESE 4 6 2 3 1008.1 1008.1 0.2
21/09:30pm 14.4 13.5 9.4 72 2.6 SE 4 7 2 4 1007.9 1007.9 0.2
21/09:00pm 14.5 13.2 9.3 71 2.7 SSE 6 9 3 5 1007.8 1007.8 0.2
21/08:30pm 15.3 13.9 9.4 68 3.0 SSE 7 11 4 6 1007.8 1007.8 0.2
21/08:00pm 16.1 14.0 9.8 66 3.3 S 11 17 6 9 1007.9 1007.9 0.2
21/07:30pm 16.6 13.7 9.8 64 3.6 SSW 15 20 8 11 1007.9 1007.9 0.2
21/07:00pm 16.9 13.6 9.6 62 3.8 SSW 17 24 9 13 1008.0 1008.0 0.2
21/06:30pm 17.0 13.7 9.4 61 4.0 SSW 17 24 9 13 1007.9 1007.9 0.2
21/06:00pm 17.4 14.1 9.6 60 4.1 SSW 17 24 9 13 1008.0 1008.0 0.2
21/05:30pm 18.0 14.9 10.4 61 4.1 SSW 17 26 9 14 1008.0 1008.0 0.2
21/05:00pm 18.4 15.4 10.5 60 4.3 S 17 24 9 13 1008.2 1008.2 0.2
21/04:30pm 18.4 15.2 10.0 58 4.5 SSW 17 24 9 13 1008.3 1008.3 0.2
21/04:00pm 19.2 16.5 10.5 57 4.7 SSW 15 22 8 12 1008.6 1008.6 0.2
21/03:30pm 18.4 14.8 9.7 57 4.6 SSW 19 24 10 13 1008.8 1008.8 0.2
21/03:00pm 18.2 14.7 10.1 59 4.3 SSW 19 28 10 15 1009.0 1009.0 0.2
21/02:30pm 17.8 14.2 9.7 59 4.3 SSW 19 28 10 15 1009.2 1009.2 0.2
21/02:00pm 18.4 14.7 10.3 59 4.3 SSW 20 32 11 17 1009.2 1009.2 0.2
21/01:30pm 18.3 14.9 10.7 61 4.1 SSW 19 28 10 15 1009.5 1009.5 0.2
21/01:00pm 17.9 14.3 10.0 60 4.2 SSW 19 30 10 16 1009.8 1009.8 0.2
21/12:30pm 18.0 14.8 10.1 60 4.2 SSW 17 28 9 15 1009.8 1009.8 0.0
21/12:00pm 17.6 14.4 9.8 60 4.1 SW 17 24 9 13 1010.1 1010.1 0.0
21/11:30am 17.4 14.2 10.1 62 3.9 SSW 17 26 9 14 1010.1 1010.1 0.0
21/11:00am 17.1 14.3 10.0 63 3.8 SSW 15 22 8 12 1010.3 1010.3 0.0
21/10:30am 17.3 14.9 10.0 62 3.9 WSW 13 20 7 11 1010.4 1010.4 0.0
21/10:00am 18.0 15.4 9.4 57 4.5 W 13 20 7 11 1010.3 1010.3 0.0
21/09:30am 16.8 14.7 9.7 63 3.7 WSW 11 19 6 10 1010.2 1010.2 0.0
21/09:00am 16.3 14.2 9.7 65 3.5 W 11 17 6 9 1010.1 1010.1 16.6
21/08:30am 15.9 14.1 9.6 66 3.3 WNW 9 17 5 9 1009.7 1009.7 16.6
21/08:00am 15.3 14.0 9.9 70 2.8 WNW 7 11 4 6 1009.4 1009.4 16.6
21/07:30am 14.9 13.6 9.9 72 2.6 WNW 7 9 4 5 1008.9 1008.9 16.6
21/07:00am 14.4 13.0 9.6 73 2.5 W 7 13 4 7 1008.7 1008.7 16.6
21/06:30am 14.5 12.8 9.9 74 2.4 W 9 15 5 8 1008.5 1008.5 16.6
21/06:00am 14.5 12.8 9.9 74 2.4 W 9 13 5 7 1008.2 1008.2 16.6
21/05:30am 14.7 13.4 10.1 74 2.4 W 7 13 4 7 1007.8 1007.8 16.6
21/05:00am 14.9 12.5 10.1 73 2.5 WSW 13 20 7 11 1007.6 1007.6 16.6
21/04:30am 14.8 12.4 10.2 74 2.4 WSW 13 22 7 12 1007.3 1007.3 16.6
21/04:00am 15.2 12.2 10.6 74 2.4 SW 17 24 9 13 1007.0 1007.0 16.6
21/03:30am 15.0 12.0 10.8 76 2.2 WSW 17 26 9 14 1007.0 1007.0 16.6
21/03:00am 15.2 11.7 11.0 76 2.2 SW 20 35 11 19 1007.0 1007.0 16.6
21/02:30am 15.2 11.7 11.0 76 2.2 SW 20 30 11 16 1007.1 1007.1 16.6
21/02:00am 15.2 12.0 11.2 77 2.1 SW 19 32 10 17 1007.2 1007.2 16.6
21/01:30am 15.2 12.2 11.8 80 1.8 WSW 19 35 10 19 1007.4 1007.4 16.6
21/01:00am 15.4 13.7 12.5 83 1.6 WSW 13 22 7 12 1007.5 1007.5 16.6
21/12:30am 15.7 13.7 12.8 83 1.6 SW 15 28 8 15 1007.4 1007.4 16.6
21/12:00am 15.9 13.7 13.4 85 1.4 SW 17 30 9 16 1007.4 1007.4 16.6
 
Date/Time
EDT
Temp
°C
App
Temp
°C
Dew
Point
°C
Rel
Hum
%
Delta-T
°C
Wind Press
QNH
hPa
Press
MSL
hPa
Rain since
9am
mm
Dir  Spd
km/h
Gust
km/h
Spd
kts
Gust
kts
20/11:30pm 16.1 13.7 13.8 86 1.3 SW 19 33 10 18 1007.5 1007.5 16.6
20/11:00pm 16.1 14.1 13.8 86 1.3 SW 17 28 9 15 1007.2 1007.2 16.6
20/10:30pm 16.2 13.6 13.9 86 1.3 SW 20 32 11 17 1007.2 1007.2 16.6
20/10:00pm 16.0 13.5 14.2 89 1.0 SW 20 28 11 15 1007.0 1007.0 16.6
20/09:30pm 16.1 14.6 14.3 89 1.0 SW 15 30 8 16 1006.5 1006.5 16.6
20/09:00pm 16.3 14.2 14.7 90 0.9 SSW 19 32 10 17 1006.2 1006.2 16.6
20/08:30pm 16.3 14.2 14.7 90 0.9 SSW 19 33 10 18 1005.9 1005.9 16.6
20/08:00pm 16.3 14.2 14.8 91 0.9 SSW 19 30 10 16 1005.4 1005.4 16.6
20/07:30pm 16.3 15.0 14.8 91 0.9 SSW 15 24 8 13 1005.2 1005.2 16.6
20/07:00pm 16.3 14.2 14.8 91 0.9 SSW 19 30 10 16 1004.8 1004.8 16.6
20/06:30pm 16.4 14.8 14.9 91 0.9 S 17 28 9 15 1004.6 1004.6 16.2
20/06:00pm 16.2 14.2 14.9 92 0.8 S 19 30 10 16 1004.4 1004.4 16.2
20/05:30pm 16.1 14.4 14.8 92 0.7 S 17 28 9 15 1004.4 1004.4 16.2
20/05:00pm 16.2 14.0 14.9 92 0.8 SSW 20 30 11 16 1004.0 1004.0 15.8
20/04:30pm 16.4 14.5 15.1 92 0.8 S 19 30 10 16 1004.0 1004.0 14.8
20/04:00pm 16.3 14.1 15.0 92 0.8 S 20 30 11 16 1004.1 1004.1 12.4
20/03:30pm 16.6 15.5 15.3 92 0.8 SSE 15 24 8 13 1004.2 1004.2 10.2
20/03:00pm 16.8 14.8 15.5 92 0.8 SSE 20 33 11 18 1004.0 1004.0 9.0
20/02:30pm 16.8 15.4 15.5 92 0.8 SSE 17 28 9 15 1004.3 1004.3 8.6
20/02:00pm 16.7 14.6 15.2 91 0.9 S 20 35 11 19 1004.6 1004.6 6.8
20/01:30pm 16.8 14.4 15.3 91 0.9 S 22 35 12 19 1004.5 1004.5 5.2
20/01:00pm 17.2 15.2 15.5 90 1.0 S 20 35 11 19 1004.6 1004.6 3.4
20/12:30pm 17.5 15.6 15.7 89 1.1 SSE 20 32 11 17 1004.5 1004.5 2.4
20/12:00pm 17.9 16.2 15.7 87 1.3 SSE 19 33 10 18 1004.5 1004.5 1.2
20/11:30am 18.1 16.3 15.9 87 1.3 SSE 20 32 11 17 1004.6 1004.6 1.0
20/11:00am 18.8 18.0 16.0 84 1.7 SSE 15 24 8 13 1004.6 1004.6 0.2
20/10:30am 19.3 19.4 16.5 84 1.7 SE 11 24 6 13 1004.5 1004.5 0.0
20/10:00am 19.1 19.2 16.5 85 1.6 SSE 11 19 6 10 1004.6 1004.6 0.0

Other formats

Comma delimited format used in spreadsheet applications
http://www.bom.gov.au/fwo/IDV60801/IDV60801.94898.axf

JavaScript Object Notation format (JSON) in row-major order
http://www.bom.gov.au/fwo/IDV60801/IDV60801.94898.json

Data quality

Most of these data are generated automatically and are frequently updated. Quality checks on data are not normally performed. It is possible for incorrect values to appear. Refer to information at About Latest Weather Observations and please check the disclaimer before using these data.